sensor_id;sensor_type;location;lat;lon;timestamp;P1;durP1;ratioP1;P2;durP2;ratioP2
8640;SDS011;4358;42.100;25.222;2022-11-20T00:00:17;4.37;;;2.70;;
8640;SDS011;4358;42.100;25.222;2022-11-20T00:02:44;5.93;;;2.67;;
8640;SDS011;4358;42.100;25.222;2022-11-20T00:05:11;5.97;;;3.33;;
8640;SDS011;4358;42.100;25.222;2022-11-20T00:07:38;7.00;;;3.73;;
8640;SDS011;4358;42.100;25.222;2022-11-20T00:10:05;6.07;;;3.50;;
8640;SDS011;4358;42.100;25.222;2022-11-20T00:12:32;3.90;;;2.30;;
8640;SDS011;4358;42.100;25.222;2022-11-20T00:15:00;5.50;;;2.40;;
8640;SDS011;4358;42.100;25.222;2022-11-20T00:17:27;6.47;;;3.43;;
8640;SDS011;4358;42.100;25.222;2022-11-20T00:19:54;2.60;;;1.87;;
8640;SDS011;4358;42.100;25.222;2022-11-20T00:22:21;2.03;;;1.83;;
8640;SDS011;4358;42.100;25.222;2022-11-20T00:24:48;6.07;;;2.60;;
8640;SDS011;4358;42.100;25.222;2022-11-20T00:27:15;3.87;;;2.80;;
8640;SDS011;4358;42.100;25.222;2022-11-20T00:29:42;5.93;;;2.70;;
8640;SDS011;4358;42.100;25.222;2022-11-20T00:32:10;3.60;;;2.10;;
8640;SDS011;4358;42.100;25.222;2022-11-20T00:34:37;3.60;;;2.17;;
8640;SDS011;4358;42.100;25.222;2022-11-20T00:37:04;7.03;;;3.10;;
8640;SDS011;4358;42.100;25.222;2022-11-20T00:39:30;4.90;;;2.70;;
8640;SDS011;4358;42.100;25.222;2022-11-20T00:41:57;3.60;;;1.87;;
8640;SDS011;4358;42.100;25.222;2022-11-20T00:44:24;3.00;;;2.40;;
8640;SDS011;4358;42.100;25.222;2022-11-20T00:46:51;4.30;;;2.20;;
8640;SDS011;4358;42.100;25.222;2022-11-20T00:49:20;3.40;;;1.97;;
8640;SDS011;4358;42.100;25.222;2022-11-20T00:51:46;3.70;;;1.73;;
8640;SDS011;4358;42.100;25.222;2022-11-20T00:54:13;3.97;;;2.17;;
8640;SDS011;4358;42.100;25.222;2022-11-20T00:56:40;4.27;;;2.50;;
8640;SDS011;4358;42.100;25.222;2022-11-20T00:59:08;5.10;;;2.80;;
8640;SDS011;4358;42.100;25.222;2022-11-20T01:01:36;2.30;;;2.03;;
8640;SDS011;4358;42.100;25.222;2022-11-20T01:04:03;6.33;;;2.20;;
8640;SDS011;4358;42.100;25.222;2022-11-20T01:06:32;5.27;;;2.77;;
8640;SDS011;4358;42.100;25.222;2022-11-20T01:09:01;4.57;;;2.60;;
8640;SDS011;4358;42.100;25.222;2022-11-20T01:11:30;3.43;;;2.07;;
8640;SDS011;4358;42.100;25.222;2022-11-20T01:13:59;3.87;;;2.03;;
8640;SDS011;4358;42.100;25.222;2022-11-20T01:16:28;4.67;;;2.20;;
8640;SDS011;4358;42.100;25.222;2022-11-20T01:18:58;2.57;;;1.90;;
8640;SDS011;4358;42.100;25.222;2022-11-20T01:21:27;3.17;;;1.90;;
8640;SDS011;4358;42.100;25.222;2022-11-20T01:23:56;1.90;;;1.47;;
8640;SDS011;4358;42.100;25.222;2022-11-20T01:26:24;3.77;;;2.07;;
8640;SDS011;4358;42.100;25.222;2022-11-20T01:28:52;4.53;;;2.40;;
8640;SDS011;4358;42.100;25.222;2022-11-20T01:31:20;6.80;;;2.77;;
8640;SDS011;4358;42.100;25.222;2022-11-20T01:33:48;3.80;;;2.17;;
8640;SDS011;4358;42.100;25.222;2022-11-20T01:36:19;4.97;;;2.23;;
8640;SDS011;4358;42.100;25.222;2022-11-20T01:38:47;4.77;;;1.93;;
8640;SDS011;4358;42.100;25.222;2022-11-20T01:41:15;3.13;;;1.87;;
8640;SDS011;4358;42.100;25.222;2022-11-20T01:43:56;3.77;;;1.50;;
8640;SDS011;4358;42.100;25.222;2022-11-20T01:46:23;5.73;;;1.70;;
8640;SDS011;4358;42.100;25.222;2022-11-20T01:48:51;1.93;;;1.40;;
8640;SDS011;4358;42.100;25.222;2022-11-20T01:51:22;6.77;;;2.30;;
8640;SDS011;4358;42.100;25.222;2022-11-20T01:53:55;5.63;;;2.00;;
8640;SDS011;4358;42.100;25.222;2022-11-20T01:56:26;3.60;;;1.90;;
8640;SDS011;4358;42.100;25.222;2022-11-20T01:58:55;2.17;;;1.40;;
8640;SDS011;4358;42.100;25.222;2022-11-20T02:01:24;3.50;;;1.80;;
8640;SDS011;4358;42.100;25.222;2022-11-20T02:03:51;2.20;;;1.43;;
8640;SDS011;4358;42.100;25.222;2022-11-20T02:06:21;2.50;;;1.87;;
8640;SDS011;4358;42.100;25.222;2022-11-20T02:08:50;3.97;;;2.07;;
8640;SDS011;4358;42.100;25.222;2022-11-20T02:11:17;2.63;;;1.63;;
8640;SDS011;4358;42.100;25.222;2022-11-20T02:13:46;3.37;;;1.63;;
8640;SDS011;4358;42.100;25.222;2022-11-20T02:16:14;4.27;;;1.73;;
8640;SDS011;4358;42.100;25.222;2022-11-20T02:18:44;5.37;;;1.80;;
8640;SDS011;4358;42.100;25.222;2022-11-20T02:21:17;5.40;;;2.03;;
8640;SDS011;4358;42.100;25.222;2022-11-20T02:24:02;3.17;;;1.73;;
8640;SDS011;4358;42.100;25.222;2022-11-20T02:26:31;3.53;;;1.73;;
8640;SDS011;4358;42.100;25.222;2022-11-20T02:29:01;4.10;;;2.20;;
8640;SDS011;4358;42.100;25.222;2022-11-20T02:31:33;4.37;;;2.37;;
8640;SDS011;4358;42.100;25.222;2022-11-20T02:34:02;2.73;;;2.00;;
8640;SDS011;4358;42.100;25.222;2022-11-20T02:36:29;2.33;;;1.53;;
8640;SDS011;4358;42.100;25.222;2022-11-20T02:39:02;5.00;;;1.70;;
8640;SDS011;4358;42.100;25.222;2022-11-20T02:41:32;4.27;;;1.57;;
8640;SDS011;4358;42.100;25.222;2022-11-20T02:44:01;2.30;;;1.70;;
8640;SDS011;4358;42.100;25.222;2022-11-20T02:46:28;4.70;;;1.70;;
8640;SDS011;4358;42.100;25.222;2022-11-20T02:48:54;2.13;;;1.40;;
8640;SDS011;4358;42.100;25.222;2022-11-20T02:51:22;5.90;;;2.10;;
8640;SDS011;4358;42.100;25.222;2022-11-20T02:53:49;2.73;;;1.60;;
8640;SDS011;4358;42.100;25.222;2022-11-20T02:56:17;2.70;;;1.40;;
8640;SDS011;4358;42.100;25.222;2022-11-20T02:58:44;6.33;;;1.43;;
8640;SDS011;4358;42.100;25.222;2022-11-20T03:01:11;2.27;;;1.60;;
8640;SDS011;4358;42.100;25.222;2022-11-20T03:03:38;3.17;;;1.37;;
8640;SDS011;4358;42.100;25.222;2022-11-20T03:06:05;1.67;;;1.40;;
8640;SDS011;4358;42.100;25.222;2022-11-20T03:08:32;4.10;;;1.30;;
8640;SDS011;4358;42.100;25.222;2022-11-20T03:11:02;4.67;;;1.57;;
8640;SDS011;4358;42.100;25.222;2022-11-20T03:13:31;2.23;;;1.27;;
8640;SDS011;4358;42.100;25.222;2022-11-20T03:16:04;2.67;;;1.17;;
8640;SDS011;4358;42.100;25.222;2022-11-20T03:18:32;3.40;;;1.57;;
8640;SDS011;4358;42.100;25.222;2022-11-20T03:20:59;3.07;;;1.47;;
8640;SDS011;4358;42.100;25.222;2022-11-20T03:23:26;1.97;;;1.30;;
8640;SDS011;4358;42.100;25.222;2022-11-20T03:25:55;4.07;;;1.43;;
8640;SDS011;4358;42.100;25.222;2022-11-20T03:28:22;5.90;;;1.77;;
8640;SDS011;4358;42.100;25.222;2022-11-20T03:30:50;5.60;;;1.70;;
8640;SDS011;4358;42.100;25.222;2022-11-20T03:33:17;2.73;;;1.40;;
8640;SDS011;4358;42.100;25.222;2022-11-20T03:35:44;2.37;;;1.30;;
8640;SDS011;4358;42.100;25.222;2022-11-20T03:38:10;2.30;;;1.23;;
8640;SDS011;4358;42.100;25.222;2022-11-20T03:40:37;1.57;;;1.20;;
8640;SDS011;4358;42.100;25.222;2022-11-20T03:43:04;4.53;;;1.20;;
8640;SDS011;4358;42.100;25.222;2022-11-20T03:45:31;1.60;;;1.20;;
8640;SDS011;4358;42.100;25.222;2022-11-20T03:47:59;2.97;;;1.20;;
8640;SDS011;4358;42.100;25.222;2022-11-20T03:50:26;5.23;;;1.53;;
8640;SDS011;4358;42.100;25.222;2022-11-20T03:52:52;2.50;;;1.17;;
8640;SDS011;4358;42.100;25.222;2022-11-20T03:55:19;2.03;;;1.13;;
8640;SDS011;4358;42.100;25.222;2022-11-20T03:57:46;6.13;;;4.60;;
8640;SDS011;4358;42.100;25.222;2022-11-20T04:00:13;3.17;;;1.60;;
8640;SDS011;4358;42.100;25.222;2022-11-20T04:02:41;1.93;;;1.27;;
8640;SDS011;4358;42.100;25.222;2022-11-20T04:05:09;3.10;;;1.60;;
8640;SDS011;4358;42.100;25.222;2022-11-20T04:07:36;5.13;;;1.70;;
8640;SDS011;4358;42.100;25.222;2022-11-20T04:10:03;2.90;;;1.30;;
8640;SDS011;4358;42.100;25.222;2022-11-20T04:12:31;2.00;;;1.47;;
8640;SDS011;4358;42.100;25.222;2022-11-20T04:14:59;1.60;;;1.20;;
8640;SDS011;4358;42.100;25.222;2022-11-20T04:17:25;2.53;;;1.30;;
8640;SDS011;4358;42.100;25.222;2022-11-20T04:19:52;1.67;;;1.10;;
8640;SDS011;4358;42.100;25.222;2022-11-20T04:22:20;1.70;;;1.60;;
8640;SDS011;4358;42.100;25.222;2022-11-20T04:24:47;2.77;;;1.37;;
8640;SDS011;4358;42.100;25.222;2022-11-20T04:27:14;1.50;;;1.17;;
8640;SDS011;4358;42.100;25.222;2022-11-20T04:29:41;2.70;;;1.40;;
8640;SDS011;4358;42.100;25.222;2022-11-20T04:32:08;2.80;;;1.47;;
8640;SDS011;4358;42.100;25.222;2022-11-20T04:34:35;2.07;;;1.30;;
8640;SDS011;4358;42.100;25.222;2022-11-20T04:37:02;3.43;;;1.77;;
8640;SDS011;4358;42.100;25.222;2022-11-20T04:39:30;1.97;;;1.23;;
8640;SDS011;4358;42.100;25.222;2022-11-20T04:41:57;1.80;;;1.07;;
8640;SDS011;4358;42.100;25.222;2022-11-20T04:44:37;1.57;;;1.13;;
8640;SDS011;4358;42.100;25.222;2022-11-20T04:47:04;2.07;;;1.30;;
8640;SDS011;4358;42.100;25.222;2022-11-20T04:49:31;2.97;;;1.20;;
8640;SDS011;4358;42.100;25.222;2022-11-20T04:51:58;3.57;;;1.50;;
8640;SDS011;4358;42.100;25.222;2022-11-20T04:54:25;1.70;;;1.40;;
8640;SDS011;4358;42.100;25.222;2022-11-20T04:56:54;2.83;;;1.40;;
8640;SDS011;4358;42.100;25.222;2022-11-20T04:59:20;2.60;;;1.40;;
8640;SDS011;4358;42.100;25.222;2022-11-20T05:01:47;2.97;;;1.70;;
8640;SDS011;4358;42.100;25.222;2022-11-20T05:04:14;1.83;;;1.30;;
8640;SDS011;4358;42.100;25.222;2022-11-20T05:06:41;5.43;;;1.40;;
8640;SDS011;4358;42.100;25.222;2022-11-20T05:09:08;3.70;;;1.30;;
8640;SDS011;4358;42.100;25.222;2022-11-20T05:11:35;2.63;;;1.47;;
8640;SDS011;4358;42.100;25.222;2022-11-20T05:14:03;1.20;;;1.10;;
8640;SDS011;4358;42.100;25.222;2022-11-20T05:16:30;7.37;;;2.10;;
8640;SDS011;4358;42.100;25.222;2022-11-20T05:18:57;2.47;;;1.50;;
8640;SDS011;4358;42.100;25.222;2022-11-20T05:21:24;1.50;;;1.40;;
8640;SDS011;4358;42.100;25.222;2022-11-20T05:23:51;2.13;;;1.50;;
8640;SDS011;4358;42.100;25.222;2022-11-20T05:26:18;1.70;;;1.40;;
8640;SDS011;4358;42.100;25.222;2022-11-20T05:28:47;4.77;;;1.70;;
8640;SDS011;4358;42.100;25.222;2022-11-20T05:31:16;3.80;;;1.40;;
8640;SDS011;4358;42.100;25.222;2022-11-20T05:33:45;2.53;;;1.30;;
8640;SDS011;4358;42.100;25.222;2022-11-20T05:36:13;3.03;;;1.67;;
8640;SDS011;4358;42.100;25.222;2022-11-20T05:38:41;1.57;;;1.40;;
8640;SDS011;4358;42.100;25.222;2022-11-20T05:41:08;1.70;;;1.33;;
8640;SDS011;4358;42.100;25.222;2022-11-20T05:43:38;2.37;;;1.60;;
8640;SDS011;4358;42.100;25.222;2022-11-20T05:46:06;1.97;;;1.40;;
8640;SDS011;4358;42.100;25.222;2022-11-20T05:48:35;3.73;;;1.40;;
8640;SDS011;4358;42.100;25.222;2022-11-20T05:51:03;2.97;;;1.40;;
8640;SDS011;4358;42.100;25.222;2022-11-20T05:53:33;1.77;;;1.20;;
8640;SDS011;4358;42.100;25.222;2022-11-20T05:56:01;3.63;;;1.30;;
8640;SDS011;4358;42.100;25.222;2022-11-20T05:58:30;1.83;;;1.43;;
8640;SDS011;4358;42.100;25.222;2022-11-20T06:01:02;4.67;;;1.60;;
8640;SDS011;4358;42.100;25.222;2022-11-20T06:03:31;1.60;;;1.40;;
8640;SDS011;4358;42.100;25.222;2022-11-20T06:05:59;3.20;;;1.17;;
8640;SDS011;4358;42.100;25.222;2022-11-20T06:08:26;2.23;;;1.30;;
8640;SDS011;4358;42.100;25.222;2022-11-20T06:10:53;1.40;;;1.10;;
8640;SDS011;4358;42.100;25.222;2022-11-20T06:13:20;3.20;;;1.33;;
8640;SDS011;4358;42.100;25.222;2022-11-20T06:15:48;3.00;;;1.50;;
8640;SDS011;4358;42.100;25.222;2022-11-20T06:18:15;3.97;;;1.43;;
8640;SDS011;4358;42.100;25.222;2022-11-20T06:20:42;3.23;;;1.57;;
8640;SDS011;4358;42.100;25.222;2022-11-20T06:23:10;8.43;;;1.73;;
8640;SDS011;4358;42.100;25.222;2022-11-20T06:25:37;2.83;;;1.50;;
8640;SDS011;4358;42.100;25.222;2022-11-20T06:28:05;2.87;;;1.43;;
8640;SDS011;4358;42.100;25.222;2022-11-20T06:30:31;2.27;;;1.23;;
8640;SDS011;4358;42.100;25.222;2022-11-20T06:32:58;6.43;;;1.57;;
8640;SDS011;4358;42.100;25.222;2022-11-20T06:35:25;2.13;;;1.23;;
8640;SDS011;4358;42.100;25.222;2022-11-20T06:37:52;3.70;;;1.93;;
8640;SDS011;4358;42.100;25.222;2022-11-20T06:40:20;3.37;;;1.40;;
8640;SDS011;4358;42.100;25.222;2022-11-20T06:42:47;3.20;;;1.70;;
8640;SDS011;4358;42.100;25.222;2022-11-20T06:45:14;3.97;;;1.63;;
8640;SDS011;4358;42.100;25.222;2022-11-20T06:47:41;3.70;;;1.40;;
8640;SDS011;4358;42.100;25.222;2022-11-20T06:50:08;4.83;;;1.57;;
8640;SDS011;4358;42.100;25.222;2022-11-20T06:52:35;2.97;;;1.60;;
8640;SDS011;4358;42.100;25.222;2022-11-20T06:55:02;4.40;;;1.63;;
8640;SDS011;4358;42.100;25.222;2022-11-20T06:57:30;2.03;;;1.50;;
8640;SDS011;4358;42.100;25.222;2022-11-20T06:59:57;4.17;;;1.47;;
8640;SDS011;4358;42.100;25.222;2022-11-20T07:02:24;2.73;;;1.60;;
8640;SDS011;4358;42.100;25.222;2022-11-20T07:04:51;3.03;;;1.57;;
8640;SDS011;4358;42.100;25.222;2022-11-20T07:07:18;3.27;;;1.60;;
8640;SDS011;4358;42.100;25.222;2022-11-20T07:09:44;3.97;;;1.80;;
8640;SDS011;4358;42.100;25.222;2022-11-20T07:12:11;2.07;;;1.47;;
8640;SDS011;4358;42.100;25.222;2022-11-20T07:14:39;3.20;;;1.80;;
8640;SDS011;4358;42.100;25.222;2022-11-20T07:17:06;3.27;;;1.80;;
8640;SDS011;4358;42.100;25.222;2022-11-20T07:19:33;1.93;;;1.23;;
8640;SDS011;4358;42.100;25.222;2022-11-20T07:22:00;2.80;;;1.50;;
8640;SDS011;4358;42.100;25.222;2022-11-20T07:24:27;2.07;;;1.70;;
8640;SDS011;4358;42.100;25.222;2022-11-20T07:26:53;4.27;;;1.80;;
8640;SDS011;4358;42.100;25.222;2022-11-20T07:29:20;1.60;;;1.37;;
8640;SDS011;4358;42.100;25.222;2022-11-20T07:31:48;2.57;;;1.60;;
8640;SDS011;4358;42.100;25.222;2022-11-20T07:34:15;3.53;;;2.13;;
8640;SDS011;4358;42.100;25.222;2022-11-20T07:36:42;4.53;;;1.93;;
8640;SDS011;4358;42.100;25.222;2022-11-20T07:39:09;3.53;;;1.70;;
8640;SDS011;4358;42.100;25.222;2022-11-20T07:41:35;3.70;;;1.50;;
8640;SDS011;4358;42.100;25.222;2022-11-20T07:44:02;5.27;;;1.93;;
8640;SDS011;4358;42.100;25.222;2022-11-20T07:46:29;2.10;;;1.40;;
8640;SDS011;4358;42.100;25.222;2022-11-20T07:48:58;4.10;;;1.50;;
8640;SDS011;4358;42.100;25.222;2022-11-20T07:51:24;2.17;;;1.50;;
8640;SDS011;4358;42.100;25.222;2022-11-20T07:53:52;4.87;;;1.57;;
8640;SDS011;4358;42.100;25.222;2022-11-20T07:56:19;5.27;;;1.77;;
8640;SDS011;4358;42.100;25.222;2022-11-20T07:58:46;1.80;;;1.40;;
8640;SDS011;4358;42.100;25.222;2022-11-20T08:01:13;4.77;;;1.57;;
8640;SDS011;4358;42.100;25.222;2022-11-20T08:03:40;3.03;;;1.67;;
8640;SDS011;4358;42.100;25.222;2022-11-20T08:06:08;4.17;;;1.90;;
8640;SDS011;4358;42.100;25.222;2022-11-20T08:08:35;7.37;;;1.90;;
8640;SDS011;4358;42.100;25.222;2022-11-20T08:11:04;4.40;;;1.73;;
8640;SDS011;4358;42.100;25.222;2022-11-20T08:13:49;2.63;;;1.60;;
8640;SDS011;4358;42.100;25.222;2022-11-20T08:16:33;2.13;;;1.63;;
8640;SDS011;4358;42.100;25.222;2022-11-20T08:19:00;2.80;;;1.60;;
8640;SDS011;4358;42.100;25.222;2022-11-20T08:21:29;3.93;;;1.93;;
8640;SDS011;4358;42.100;25.222;2022-11-20T08:23:56;3.20;;;1.83;;
8640;SDS011;4358;42.100;25.222;2022-11-20T08:26:24;1.67;;;1.37;;
8640;SDS011;4358;42.100;25.222;2022-11-20T08:28:52;3.63;;;1.97;;
8640;SDS011;4358;42.100;25.222;2022-11-20T08:31:20;6.43;;;3.43;;
8640;SDS011;4358;42.100;25.222;2022-11-20T08:33:47;5.70;;;2.10;;
8640;SDS011;4358;42.100;25.222;2022-11-20T08:36:14;4.03;;;1.80;;
8640;SDS011;4358;42.100;25.222;2022-11-20T08:38:46;3.97;;;1.60;;
8640;SDS011;4358;42.100;25.222;2022-11-20T08:41:13;2.47;;;1.70;;
8640;SDS011;4358;42.100;25.222;2022-11-20T08:43:53;5.37;;;1.83;;
8640;SDS011;4358;42.100;25.222;2022-11-20T08:46:22;3.37;;;2.10;;
8640;SDS011;4358;42.100;25.222;2022-11-20T08:48:50;4.17;;;1.77;;
8640;SDS011;4358;42.100;25.222;2022-11-20T08:51:17;3.30;;;2.07;;
8640;SDS011;4358;42.100;25.222;2022-11-20T08:53:46;7.20;;;2.10;;
8640;SDS011;4358;42.100;25.222;2022-11-20T08:56:14;5.53;;;2.73;;
8640;SDS011;4358;42.100;25.222;2022-11-20T08:58:41;5.77;;;2.10;;
8640;SDS011;4358;42.100;25.222;2022-11-20T09:01:08;2.97;;;1.83;;
8640;SDS011;4358;42.100;25.222;2022-11-20T09:03:35;7.20;;;1.90;;
8640;SDS011;4358;42.100;25.222;2022-11-20T09:06:02;9.07;;;2.30;;
8640;SDS011;4358;42.100;25.222;2022-11-20T09:08:31;4.13;;;1.60;;
8640;SDS011;4358;42.100;25.222;2022-11-20T09:11:00;7.47;;;2.43;;
8640;SDS011;4358;42.100;25.222;2022-11-20T09:13:27;7.17;;;2.30;;
8640;SDS011;4358;42.100;25.222;2022-11-20T09:15:55;3.33;;;1.80;;
8640;SDS011;4358;42.100;25.222;2022-11-20T09:18:22;5.17;;;1.60;;
8640;SDS011;4358;42.100;25.222;2022-11-20T09:20:49;3.37;;;1.70;;
8640;SDS011;4358;42.100;25.222;2022-11-20T09:23:17;10.40;;;2.17;;
8640;SDS011;4358;42.100;25.222;2022-11-20T09:25:44;6.20;;;2.07;;
8640;SDS011;4358;42.100;25.222;2022-11-20T09:28:12;2.83;;;1.77;;
8640;SDS011;4358;42.100;25.222;2022-11-20T09:30:39;7.63;;;2.07;;
8640;SDS011;4358;42.100;25.222;2022-11-20T09:33:06;2.33;;;1.77;;
8640;SDS011;4358;42.100;25.222;2022-11-20T09:35:33;3.23;;;1.60;;
8640;SDS011;4358;42.100;25.222;2022-11-20T09:38:04;3.70;;;1.90;;
8640;SDS011;4358;42.100;25.222;2022-11-20T09:40:31;7.13;;;1.80;;
8640;SDS011;4358;42.100;25.222;2022-11-20T09:43:00;1.50;;;1.40;;
8640;SDS011;4358;42.100;25.222;2022-11-20T09:45:37;4.17;;;1.87;;
8640;SDS011;4358;42.100;25.222;2022-11-20T09:48:19;6.23;;;2.80;;
8640;SDS011;4358;42.100;25.222;2022-11-20T09:50:56;4.70;;;3.00;;
8640;SDS011;4358;42.100;25.222;2022-11-20T09:53:33;4.53;;;1.90;;
8640;SDS011;4358;42.100;25.222;2022-11-20T09:56:11;3.57;;;1.77;;
8640;SDS011;4358;42.100;25.222;2022-11-20T09:58:39;4.00;;;1.90;;
8640;SDS011;4358;42.100;25.222;2022-11-20T10:01:12;7.67;;;1.80;;
8640;SDS011;4358;42.100;25.222;2022-11-20T10:03:44;2.50;;;1.50;;
8640;SDS011;4358;42.100;25.222;2022-11-20T10:06:20;4.03;;;1.77;;
8640;SDS011;4358;42.100;25.222;2022-11-20T10:08:51;7.17;;;2.37;;
8640;SDS011;4358;42.100;25.222;2022-11-20T10:11:26;9.73;;;1.90;;
8640;SDS011;4358;42.100;25.222;2022-11-20T10:14:04;7.73;;;1.90;;
8640;SDS011;4358;42.100;25.222;2022-11-20T10:16:44;5.97;;;2.17;;
8640;SDS011;4358;42.100;25.222;2022-11-20T10:19:27;3.07;;;1.60;;
8640;SDS011;4358;42.100;25.222;2022-11-20T10:22:10;5.40;;;1.70;;
8640;SDS011;4358;42.100;25.222;2022-11-20T10:24:50;7.67;;;1.80;;
8640;SDS011;4358;42.100;25.222;2022-11-20T10:30:24;8.53;;;2.00;;
8640;SDS011;4358;42.100;25.222;2022-11-20T10:32:54;3.37;;;1.97;;
8640;SDS011;4358;42.100;25.222;2022-11-20T10:35:27;9.97;;;2.40;;
8640;SDS011;4358;42.100;25.222;2022-11-20T10:38:00;3.10;;;1.40;;
8640;SDS011;4358;42.100;25.222;2022-11-20T10:40:31;6.87;;;1.50;;
8640;SDS011;4358;42.100;25.222;2022-11-20T10:43:02;5.77;;;1.83;;
8640;SDS011;4358;42.100;25.222;2022-11-20T10:45:39;7.60;;;2.00;;
8640;SDS011;4358;42.100;25.222;2022-11-20T10:48:19;2.97;;;1.80;;
8640;SDS011;4358;42.100;25.222;2022-11-20T10:50:53;5.63;;;2.20;;
8640;SDS011;4358;42.100;25.222;2022-11-20T10:53:31;4.83;;;1.97;;
8640;SDS011;4358;42.100;25.222;2022-11-20T10:56:08;7.13;;;2.80;;
8640;SDS011;4358;42.100;25.222;2022-11-20T10:58:44;5.07;;;2.10;;
8640;SDS011;4358;42.100;25.222;2022-11-20T11:01:17;7.37;;;2.53;;
8640;SDS011;4358;42.100;25.222;2022-11-20T11:03:48;9.20;;;2.63;;
8640;SDS011;4358;42.100;25.222;2022-11-20T11:06:17;7.07;;;2.40;;
8640;SDS011;4358;42.100;25.222;2022-11-20T11:08:50;12.73;;;2.63;;
8640;SDS011;4358;42.100;25.222;2022-11-20T11:11:21;6.07;;;1.90;;
8640;SDS011;4358;42.100;25.222;2022-11-20T11:13:50;12.40;;;2.53;;
8640;SDS011;4358;42.100;25.222;2022-11-20T11:16:21;9.33;;;2.77;;
8640;SDS011;4358;42.100;25.222;2022-11-20T11:18:50;6.47;;;2.27;;
8640;SDS011;4358;42.100;25.222;2022-11-20T11:21:21;7.10;;;2.87;;
8640;SDS011;4358;42.100;25.222;2022-11-20T11:23:57;14.97;;;2.57;;
8640;SDS011;4358;42.100;25.222;2022-11-20T11:26:26;11.23;;;2.90;;
8640;SDS011;4358;42.100;25.222;2022-11-20T11:28:57;17.03;;;6.13;;
8640;SDS011;4358;42.100;25.222;2022-11-20T11:31:25;7.83;;;3.37;;
8640;SDS011;4358;42.100;25.222;2022-11-20T11:34:04;10.30;;;4.03;;
8640;SDS011;4358;42.100;25.222;2022-11-20T11:36:32;5.10;;;2.40;;
8640;SDS011;4358;42.100;25.222;2022-11-20T11:38:59;8.53;;;2.43;;
8640;SDS011;4358;42.100;25.222;2022-11-20T11:41:28;11.33;;;3.07;;
8640;SDS011;4358;42.100;25.222;2022-11-20T11:44:00;9.97;;;3.07;;
8640;SDS011;4358;42.100;25.222;2022-11-20T11:46:56;8.27;;;2.80;;
8640;SDS011;4358;42.100;25.222;2022-11-20T11:49:25;10.40;;;2.10;;
8640;SDS011;4358;42.100;25.222;2022-11-20T11:52:00;10.90;;;2.43;;
8640;SDS011;4358;42.100;25.222;2022-11-20T11:54:33;7.70;;;2.80;;
8640;SDS011;4358;42.100;25.222;2022-11-20T11:57:11;11.93;;;2.20;;
8640;SDS011;4358;42.100;25.222;2022-11-20T11:59:44;12.80;;;2.37;;
8640;SDS011;4358;42.100;25.222;2022-11-20T12:02:28;10.23;;;2.43;;
8640;SDS011;4358;42.100;25.222;2022-11-20T12:05:05;6.13;;;1.93;;
8640;SDS011;4358;42.100;25.222;2022-11-20T12:07:41;8.50;;;2.33;;
8640;SDS011;4358;42.100;25.222;2022-11-20T12:10:13;6.73;;;2.00;;
8640;SDS011;4358;42.100;25.222;2022-11-20T12:12:49;8.00;;;2.33;;
8640;SDS011;4358;42.100;25.222;2022-11-20T12:15:23;11.97;;;2.30;;
8640;SDS011;4358;42.100;25.222;2022-11-20T12:17:55;11.57;;;2.67;;
8640;SDS011;4358;42.100;25.222;2022-11-20T12:20:24;10.17;;;2.93;;
8640;SDS011;4358;42.100;25.222;2022-11-20T12:22:54;15.43;;;2.80;;
8640;SDS011;4358;42.100;25.222;2022-11-20T12:25:27;10.27;;;2.80;;
8640;SDS011;4358;42.100;25.222;2022-11-20T12:31:25;7.10;;;2.47;;
8640;SDS011;4358;42.100;25.222;2022-11-20T12:34:08;6.33;;;1.73;;
8640;SDS011;4358;42.100;25.222;2022-11-20T12:36:48;12.90;;;2.30;;
8640;SDS011;4358;42.100;25.222;2022-11-20T12:39:29;10.47;;;2.43;;
8640;SDS011;4358;42.100;25.222;2022-11-20T12:42:15;6.60;;;2.50;;
8640;SDS011;4358;42.100;25.222;2022-11-20T12:45:21;9.87;;;2.47;;
8640;SDS011;4358;42.100;25.222;2022-11-20T12:48:02;15.77;;;2.60;;
8640;SDS011;4358;42.100;25.222;2022-11-20T12:50:46;11.70;;;2.50;;
8640;SDS011;4358;42.100;25.222;2022-11-20T12:53:25;13.17;;;2.33;;
8640;SDS011;4358;42.100;25.222;2022-11-20T12:55:59;6.00;;;2.20;;
8640;SDS011;4358;42.100;25.222;2022-11-20T12:58:38;8.50;;;2.33;;
8640;SDS011;4358;42.100;25.222;2022-11-20T13:01:17;8.37;;;2.23;;
8640;SDS011;4358;42.100;25.222;2022-11-20T13:04:14;10.17;;;2.43;;
8640;SDS011;4358;42.100;25.222;2022-11-20T13:06:51;11.83;;;2.20;;
8640;SDS011;4358;42.100;25.222;2022-11-20T13:09:20;8.93;;;2.47;;
8640;SDS011;4358;42.100;25.222;2022-11-20T13:12:01;9.30;;;2.87;;
8640;SDS011;4358;42.100;25.222;2022-11-20T13:14:33;5.27;;;1.83;;
8640;SDS011;4358;42.100;25.222;2022-11-20T13:17:05;8.20;;;2.87;;
8640;SDS011;4358;42.100;25.222;2022-11-20T13:19:37;5.60;;;2.37;;
8640;SDS011;4358;42.100;25.222;2022-11-20T13:22:05;6.60;;;2.27;;
8640;SDS011;4358;42.100;25.222;2022-11-20T13:24:35;9.70;;;2.03;;
8640;SDS011;4358;42.100;25.222;2022-11-20T13:27:03;16.43;;;2.70;;
8640;SDS011;4358;42.100;25.222;2022-11-20T13:29:43;5.80;;;2.83;;
8640;SDS011;4358;42.100;25.222;2022-11-20T13:32:13;4.83;;;2.00;;
8640;SDS011;4358;42.100;25.222;2022-11-20T13:34:51;9.03;;;2.87;;
8640;SDS011;4358;42.100;25.222;2022-11-20T13:37:24;12.63;;;2.90;;
8640;SDS011;4358;42.100;25.222;2022-11-20T13:40:10;13.07;;;2.53;;
8640;SDS011;4358;42.100;25.222;2022-11-20T13:42:39;13.17;;;3.07;;
8640;SDS011;4358;42.100;25.222;2022-11-20T13:45:11;7.20;;;2.40;;
8640;SDS011;4358;42.100;25.222;2022-11-20T13:47:48;8.40;;;2.93;;
8640;SDS011;4358;42.100;25.222;2022-11-20T13:50:16;14.77;;;4.03;;
8640;SDS011;4358;42.100;25.222;2022-11-20T13:52:48;14.33;;;2.90;;
8640;SDS011;4358;42.100;25.222;2022-11-20T13:55:26;9.50;;;2.20;;
8640;SDS011;4358;42.100;25.222;2022-11-20T14:00:55;12.20;;;2.93;;
8640;SDS011;4358;42.100;25.222;2022-11-20T14:03:24;12.87;;;2.70;;
8640;SDS011;4358;42.100;25.222;2022-11-20T14:05:56;12.23;;;2.57;;
8640;SDS011;4358;42.100;25.222;2022-11-20T14:08:28;7.57;;;2.30;;
8640;SDS011;4358;42.100;25.222;2022-11-20T14:11:03;7.27;;;2.37;;
8640;SDS011;4358;42.100;25.222;2022-11-20T14:13:31;7.30;;;2.40;;
8640;SDS011;4358;42.100;25.222;2022-11-20T14:15:59;7.17;;;2.30;;
8640;SDS011;4358;42.100;25.222;2022-11-20T14:18:26;8.47;;;2.60;;
8640;SDS011;4358;42.100;25.222;2022-11-20T14:20:53;10.33;;;2.87;;
8640;SDS011;4358;42.100;25.222;2022-11-20T14:23:23;8.47;;;2.80;;
8640;SDS011;4358;42.100;25.222;2022-11-20T14:25:52;13.47;;;2.57;;
8640;SDS011;4358;42.100;25.222;2022-11-20T14:28:21;9.70;;;2.30;;
8640;SDS011;4358;42.100;25.222;2022-11-20T14:30:52;12.53;;;3.10;;
8640;SDS011;4358;42.100;25.222;2022-11-20T14:33:20;15.20;;;3.20;;
8640;SDS011;4358;42.100;25.222;2022-11-20T14:35:51;6.47;;;2.50;;
8640;SDS011;4358;42.100;25.222;2022-11-20T14:38:22;11.80;;;2.70;;
8640;SDS011;4358;42.100;25.222;2022-11-20T14:40:52;15.37;;;3.00;;
8640;SDS011;4358;42.100;25.222;2022-11-20T14:43:21;5.77;;;2.50;;
8640;SDS011;4358;42.100;25.222;2022-11-20T14:45:52;4.93;;;2.20;;
8640;SDS011;4358;42.100;25.222;2022-11-20T14:48:25;3.93;;;1.90;;
8640;SDS011;4358;42.100;25.222;2022-11-20T14:50:56;5.33;;;2.40;;
8640;SDS011;4358;42.100;25.222;2022-11-20T14:53:23;4.07;;;2.43;;
8640;SDS011;4358;42.100;25.222;2022-11-20T14:55:55;7.27;;;2.47;;
8640;SDS011;4358;42.100;25.222;2022-11-20T14:58:26;3.63;;;2.17;;
8640;SDS011;4358;42.100;25.222;2022-11-20T15:00:55;11.37;;;3.17;;
8640;SDS011;4358;42.100;25.222;2022-11-20T15:03:23;7.50;;;2.77;;
8640;SDS011;4358;42.100;25.222;2022-11-20T15:05:56;8.10;;;4.00;;
8640;SDS011;4358;42.100;25.222;2022-11-20T15:08:23;7.97;;;4.10;;
8640;SDS011;4358;42.100;25.222;2022-11-20T15:10:51;5.63;;;2.53;;
8640;SDS011;4358;42.100;25.222;2022-11-20T15:13:21;7.07;;;3.33;;
8640;SDS011;4358;42.100;25.222;2022-11-20T15:15:55;8.73;;;2.70;;
8640;SDS011;4358;42.100;25.222;2022-11-20T15:18:25;6.27;;;2.00;;
8640;SDS011;4358;42.100;25.222;2022-11-20T15:20:55;5.33;;;2.20;;
8640;SDS011;4358;42.100;25.222;2022-11-20T15:23:23;6.67;;;3.57;;
8640;SDS011;4358;42.100;25.222;2022-11-20T15:25:50;10.23;;;4.50;;